Time,TemperatureF,DewpointF,PressureIn,WindDirection,WindDirectionDegrees,WindSpeedMPH,WindSpeedGustMPH,Humidity,HourlyPrecipIn,Conditions,Clouds,dailyrainin,SoftwareType,DateUTC
2013-03-02 00:09:00,43.7,34.0,29.70,NW,307,1.0,2.0,70,0.00,,,0.00,weatherlink.com 1.10,2013-03-02 05:09:00,
2013-03-02 00:24:00,43.8,35.0,29.70,NW,323,0.0,2.0,70,0.00,,,0.00,weatherlink.com 1.10,2013-03-02 05:24:00,
2013-03-02 00:39:00,43.6,34.0,29.70,NW,309,1.0,3.0,70,0.00,,,0.00,weatherlink.com 1.10,2013-03-02 05:39:00,
2013-03-02 00:56:00,43.4,35.0,29.70,NW,312,0.0,2.0,71,0.00,,,0.00,weatherlink.com 1.10,2013-03-02 05:56:00,
2013-03-02 01:11:00,43.1,35.0,29.70,NW,322,1.0,2.0,72,0.00,,,0.00,weatherlink.com 1.10,2013-03-02 06:11:00,
2013-03-02 01:26:00,42.9,34.0,29.70,WNW,300,0.0,2.0,72,0.00,,,0.00,weatherlink.com 1.10,2013-03-02 06:26:00,
2013-03-02 01:41:00,43.0,34.0,29.70,NNW,339,1.0,3.0,71,0.00,,,0.00,weatherlink.com 1.10,2013-03-02 06:41:00,
2013-03-02 01:56:00,42.8,34.0,29.69,WNW,289,2.0,2.0,71,0.00,,,0.00,weatherlink.com 1.10,2013-03-02 06:56:00,
2013-03-02 02:11:00,42.5,34.0,29.69,WNW,290,0.0,2.0,72,0.00,,,0.00,weatherlink.com 1.10,2013-03-02 07:11:00,
2013-03-02 02:26:00,42.4,34.0,29.69,West,281,1.0,2.0,72,0.00,,,0.00,weatherlink.com 1.10,2013-03-02 07:26:00,
2013-03-02 02:42:00,42.2,34.0,29.69,West,269,0.0,2.0,73,0.00,,,0.00,weatherlink.com 1.10,2013-03-02 07:42:00,
2013-03-02 02:57:00,42.0,35.0,29.69,WSW,242,1.0,2.0,75,0.00,,,0.00,weatherlink.com 1.10,2013-03-02 07:57:00,
2013-03-02 03:12:00,41.7,34.0,29.68,WSW,250,0.0,1.0,75,0.00,,,0.00,weatherlink.com 1.10,2013-03-02 08:12:00,
2013-03-02 03:27:00,40.9,34.0,29.67,WSW,249,0.0,1.0,77,0.00,,,0.00,weatherlink.com 1.10,2013-03-02 08:27:00,
2013-03-02 03:43:00,39.5,34.0,29.67,WSW,249,0.0,0.0,81,0.00,,,0.00,weatherlink.com 1.10,2013-03-02 08:43:00,
2013-03-02 03:58:00,38.4,34.0,29.67,West,267,0.0,1.0,84,0.00,,,0.00,weatherlink.com 1.10,2013-03-02 08:58:00,
2013-03-02 04:13:00,37.4,34.0,29.67,WNW,288,1.0,1.0,87,0.00,,,0.00,weatherlink.com 1.10,2013-03-02 09:13:00,
2013-03-02 04:28:00,37.1,33.0,29.68,West,274,0.0,1.0,86,0.00,,,0.00,weatherlink.com 1.10,2013-03-02 09:28:00,
2013-03-02 04:43:00,36.0,33.0,29.68,West,273,0.0,0.0,88,0.00,,,0.00,weatherlink.com 1.10,2013-03-02 09:43:00,
2013-03-02 04:59:00,-999.0,-99.9,29.69,North,-999,-999.0,-999.0,-999,0.00,,,0.00,weatherlink.com 1.10,2013-03-02 09:59:00,
2013-03-02 05:14:00,-999.0,-99.9,29.69,North,-999,-999.0,-999.0,-999,0.00,,,0.00,weatherlink.com 1.10,2013-03-02 10:14:00,
2013-03-02 05:29:00,-999.0,-99.9,29.69,North,-999,-999.0,-999.0,-999,0.00,,,0.00,weatherlink.com 1.10,2013-03-02 10:29:00,
2013-03-02 05:45:00,-999.0,-99.9,29.69,North,-999,-999.0,-999.0,-999,0.00,,,0.00,weatherlink.com 1.10,2013-03-02 10:45:00,
2013-03-02 06:02:00,-999.0,-99.9,29.69,North,-999,-999.0,-999.0,-999,0.00,,,0.00,weatherlink.com 1.10,2013-03-02 11:02:00,
2013-03-02 06:16:00,-999.0,-99.9,29.70,North,-999,-999.0,-999.0,-999,0.00,,,0.00,weatherlink.com 1.10,2013-03-02 11:16:00,
2013-03-02 06:32:00,-999.0,-99.9,29.69,North,-999,-999.0,-999.0,-999,0.00,,,0.00,weatherlink.com 1.10,2013-03-02 11:32:00,
2013-03-02 06:46:00,-999.0,-99.9,29.69,North,-999,-999.0,-999.0,-999,0.00,,,0.00,weatherlink.com 1.10,2013-03-02 11:46:00,
2013-03-02 07:02:00,-999.0,-99.9,29.70,North,-999,-999.0,-999.0,-999,0.00,,,0.00,weatherlink.com 1.10,2013-03-02 12:02:00,
2013-03-02 07:16:00,34.2,31.0,29.70,West,281,1.0,2.0,89,0.00,,,0.00,weatherlink.com 1.10,2013-03-02 12:16:00,
2013-03-02 07:32:00,36.2,32.0,29.70,NW,306,2.0,3.0,84,0.00,,,0.00,weatherlink.com 1.10,2013-03-02 12:32:00,
2013-03-02 07:47:00,37.9,32.0,29.71,NW,321,2.0,5.0,78,0.00,,,0.00,weatherlink.com 1.10,2013-03-02 12:47:00,
2013-03-02 08:02:00,38.7,32.0,29.72,NNW,327,2.0,7.0,76,0.00,,,0.00,weatherlink.com 1.10,2013-03-02 13:02:00,
2013-03-02 08:17:00,39.2,31.0,29.72,NW,313,3.0,5.0,73,0.00,,,0.00,weatherlink.com 1.10,2013-03-02 13:17:00,
2013-03-02 08:32:00,40.0,32.0,29.71,North,7,2.0,5.0,73,0.00,,,0.00,weatherlink.com 1.10,2013-03-02 13:32:00,
2013-03-02 08:48:00,40.9,32.0,29.70,WNW,298,2.0,6.0,71,0.00,,,0.00,weatherlink.com 1.10,2013-03-02 13:48:00,
2013-03-02 09:03:00,41.6,32.0,29.70,NNE,30,1.0,5.0,70,0.00,,,0.00,weatherlink.com 1.10,2013-03-02 14:03:00,
2013-03-02 09:18:00,42.3,33.0,29.70,NNE,32,3.0,7.0,69,0.00,,,0.00,weatherlink.com 1.10,2013-03-02 14:18:00,
2013-03-02 09:33:00,43.2,32.0,29.69,ENE,65,5.0,9.0,66,0.00,,,0.00,weatherlink.com 1.10,2013-03-02 14:33:00,
2013-03-02 09:48:00,43.6,32.0,29.68,North,9,1.0,6.0,63,0.00,,,0.00,weatherlink.com 1.10,2013-03-02 14:48:00,
2013-03-02 10:04:00,44.3,32.0,29.68,East,86,3.0,8.0,62,0.00,,,0.00,weatherlink.com 1.10,2013-03-02 15:04:00,
2013-03-02 10:19:00,45.6,31.0,29.67,NNE,32,4.0,8.0,58,0.00,,,0.00,weatherlink.com 1.10,2013-03-02 15:19:00,
2013-03-02 10:34:00,45.5,31.0,29.67,NNE,27,2.0,8.0,58,0.00,,,0.00,weatherlink.com 1.10,2013-03-02 15:34:00,
2013-03-02 10:51:00,45.7,31.0,29.66,NE,34,9.0,10.0,58,0.00,,,0.00,weatherlink.com 1.10,2013-03-02 15:51:00,
2013-03-02 11:05:00,45.9,30.0,29.66,NE,53,6.0,11.0,55,0.00,,,0.00,weatherlink.com 1.10,2013-03-02 16:05:00,
2013-03-02 11:21:00,46.2,29.0,29.66,NNE,25,7.0,10.0,51,0.00,,,0.00,weatherlink.com 1.10,2013-03-02 16:21:00,
2013-03-02 11:36:00,46.2,27.0,29.66,NE,55,6.0,11.0,48,0.00,,,0.00,weatherlink.com 1.10,2013-03-02 16:36:00,
2013-03-02 11:51:00,47.2,29.0,29.65,NNW,336,3.0,10.0,50,0.00,,,0.00,weatherlink.com 1.10,2013-03-02 16:51:00,
2013-03-02 12:06:00,48.3,30.0,29.64,NE,42,4.0,14.0,49,0.00,,,0.00,weatherlink.com 1.10,2013-03-02 17:06:00,
2013-03-02 12:21:00,47.5,29.0,29.64,ESE,115,1.0,14.0,49,0.00,,,0.00,weatherlink.com 1.10,2013-03-02 17:21:00,
2013-03-02 12:36:00,48.4,30.0,29.63,NW,309,5.0,10.0,50,0.00,,,0.00,weatherlink.com 1.10,2013-03-02 17:36:00,
2013-03-02 12:52:00,48.2,30.0,29.63,ENE,60,10.0,10.0,49,0.00,,,0.00,weatherlink.com 1.10,2013-03-02 17:52:00,
2013-03-02 13:09:00,48.2,30.0,29.62,ENE,65,5.0,9.0,49,0.00,,,0.00,weatherlink.com 1.10,2013-03-02 18:09:00,
2013-03-02 13:22:00,48.9,30.0,29.62,East,82,2.0,8.0,49,0.00,,,0.00,weatherlink.com 1.10,2013-03-02 18:22:00,
2013-03-02 13:37:00,49.4,30.0,29.61,NNE,25,4.0,8.0,48,0.00,,,0.00,weatherlink.com 1.10,2013-03-02 18:37:00,
2013-03-02 13:53:00,49.7,31.0,29.61,NE,46,0.0,10.0,48,0.00,,,0.00,weatherlink.com 1.10,2013-03-02 18:53:00,
2013-03-02 14:08:00,51.0,30.0,29.60,WNW,294,1.0,11.0,44,0.00,,,0.00,weatherlink.com 1.10,2013-03-02 19:08:00,
2013-03-02 14:23:00,51.4,31.0,29.60,WNW,300,5.0,15.0,45,0.00,,,0.00,weatherlink.com 1.10,2013-03-02 19:23:00,
2013-03-02 14:38:00,50.6,30.0,29.60,NW,305,12.0,12.0,45,0.00,,,0.00,weatherlink.com 1.10,2013-03-02 19:38:00,
2013-03-02 14:53:00,51.9,32.0,29.60,NNW,338,5.0,14.0,46,0.00,,,0.00,weatherlink.com 1.10,2013-03-02 19:53:00,
2013-03-02 15:09:00,51.9,30.0,29.60,WNW,293,6.0,16.0,44,0.00,,,0.00,weatherlink.com 1.10,2013-03-02 20:09:00,
2013-03-02 15:24:00,52.0,30.0,29.60,NW,321,9.0,14.0,43,0.00,,,0.00,weatherlink.com 1.10,2013-03-02 20:24:00,
2013-03-02 15:39:00,52.1,31.0,29.59,NW,323,4.0,10.0,44,0.00,,,0.00,weatherlink.com 1.10,2013-03-02 20:39:00,
2013-03-02 15:54:00,52.1,31.0,29.60,NNE,27,6.0,11.0,44,0.00,,,0.00,weatherlink.com 1.10,2013-03-02 20:54:00,
2013-03-02 16:09:00,50.8,30.0,29.60,West,274,6.0,13.0,45,0.00,,,0.00,weatherlink.com 1.10,2013-03-02 21:09:00,
2013-03-02 16:26:00,50.1,30.0,29.60,West,263,8.0,12.0,47,0.00,,,0.00,weatherlink.com 1.10,2013-03-02 21:26:00,
2013-03-02 16:41:00,49.5,30.0,29.60,West,279,3.0,12.0,47,0.00,,,0.00,weatherlink.com 1.10,2013-03-02 21:41:00,
2013-03-02 16:56:00,49.7,30.0,29.60,NW,320,7.0,14.0,47,0.00,,,0.00,weatherlink.com 1.10,2013-03-02 21:56:00,
2013-03-02 17:11:00,50.0,30.0,29.61,North,358,4.0,10.0,46,0.00,,,0.00,weatherlink.com 1.10,2013-03-02 22:11:00,
2013-03-02 17:26:00,49.2,29.0,29.61,WNW,295,1.0,10.0,46,0.00,,,0.00,weatherlink.com 1.10,2013-03-02 22:26:00,
2013-03-02 17:41:00,48.6,31.0,29.61,North,6,1.0,10.0,50,0.00,,,0.00,weatherlink.com 1.10,2013-03-02 22:41:00,
2013-03-02 17:56:00,48.5,30.0,29.62,NNW,338,4.0,6.0,49,0.00,,,0.00,weatherlink.com 1.10,2013-03-02 22:56:00,
2013-03-02 18:12:00,48.0,30.0,29.63,NNW,336,4.0,6.0,50,0.00,,,0.00,weatherlink.com 1.10,2013-03-02 23:12:00,
2013-03-02 18:27:00,47.7,31.0,29.63,NNW,330,2.0,6.0,52,0.00,,,0.00,weatherlink.com 1.10,2013-03-02 23:27:00,
2013-03-02 18:42:00,47.2,31.0,29.64,NW,318,1.0,5.0,54,0.00,,,0.00,weatherlink.com 1.10,2013-03-02 23:42:00,
2013-03-02 18:57:00,46.7,32.0,29.64,NNW,330,2.0,4.0,56,0.00,,,0.00,weatherlink.com 1.10,2013-03-02 23:57:00,
2013-03-02 19:12:00,45.9,32.0,29.64,WNW,300,1.0,4.0,58,0.00,,,0.00,weatherlink.com 1.10,2013-03-03 00:12:00,
2013-03-02 19:28:00,45.0,33.0,29.64,WNW,297,1.0,2.0,62,0.00,,,0.00,weatherlink.com 1.10,2013-03-03 00:28:00,
2013-03-02 19:43:00,44.1,32.0,29.64,NNW,331,1.0,4.0,63,0.00,,,0.00,weatherlink.com 1.10,2013-03-03 00:43:00,
2013-03-02 19:58:00,43.5,32.0,29.64,WNW,294,2.0,2.0,63,0.00,,,0.00,weatherlink.com 1.10,2013-03-03 00:58:00,
2013-03-02 20:13:00,42.7,33.0,29.65,WNW,295,1.0,3.0,68,0.00,,,0.00,weatherlink.com 1.10,2013-03-03 01:13:00,
2013-03-02 20:28:00,41.8,32.0,29.65,West,279,1.0,1.0,69,0.00,,,0.00,weatherlink.com 1.10,2013-03-03 01:28:00,
2013-03-02 20:44:00,40.4,32.0,29.65,SSW,200,0.0,1.0,72,0.00,,,0.00,weatherlink.com 1.10,2013-03-03 01:44:00,
2013-03-02 20:59:00,40.7,32.0,29.67,NE,52,0.0,6.0,72,0.00,,,0.00,weatherlink.com 1.10,2013-03-03 01:59:00,
2013-03-02 21:14:00,41.6,32.0,29.67,NE,53,3.0,7.0,69,0.00,,,0.00,weatherlink.com 1.10,2013-03-03 02:14:00,
2013-03-02 21:29:00,41.8,32.0,29.68,ENE,63,4.0,7.0,69,0.00,,,0.00,weatherlink.com 1.10,2013-03-03 02:29:00,
2013-03-02 21:44:00,41.5,32.0,29.68,ENE,58,4.0,8.0,68,0.00,,,0.00,weatherlink.com 1.10,2013-03-03 02:44:00,
2013-03-02 22:02:00,41.2,32.0,29.68,NE,45,5.0,5.0,69,0.00,,,0.00,weatherlink.com 1.10,2013-03-03 03:02:00,
2013-03-02 22:16:00,41.1,31.0,29.68,NE,56,4.0,7.0,68,0.00,,,0.00,weatherlink.com 1.10,2013-03-03 03:16:00,
2013-03-02 22:31:00,40.8,31.0,29.68,NE,50,5.0,8.0,69,0.00,,,0.00,weatherlink.com 1.10,2013-03-03 03:31:00,
2013-03-02 22:46:00,41.1,31.0,29.68,NNE,19,3.0,10.0,68,0.00,,,0.00,weatherlink.com 1.10,2013-03-03 03:46:00,
2013-03-02 23:02:00,40.8,31.0,29.68,NE,53,6.0,10.0,68,0.00,,,0.00,weatherlink.com 1.10,2013-03-03 04:02:00,
2013-03-02 23:16:00,40.8,31.0,29.68,NE,54,6.0,10.0,67,0.00,,,0.00,weatherlink.com 1.10,2013-03-03 04:16:00,
2013-03-02 23:31:00,40.8,31.0,29.68,NNE,23,2.0,8.0,67,0.00,,,0.00,weatherlink.com 1.10,2013-03-03 04:31:00,
2013-03-02 23:46:00,40.7,30.0,29.68,NE,49,5.0,7.0,67,0.00,,,0.00,weatherlink.com 1.10,2013-03-03 04:46:00,